createdAt,value
2023-01-19T00:04:09.539Z,100.00
2023-01-19T00:09:11.227Z,100.00
2023-01-19T00:14:15.258Z,100.00
2023-01-19T00:19:19.094Z,100.00
2023-01-19T00:24:28.110Z,100.00
2023-01-19T00:29:33.455Z,100.00
2023-01-19T00:34:39.685Z,100.00
2023-01-19T00:39:41.466Z,100.00
2023-01-19T00:44:47.909Z,100.00
2023-01-19T00:49:49.862Z,100.00
2023-01-19T00:54:51.581Z,100.00
2023-01-19T00:59:55.592Z,100.00
2023-01-19T01:04:58.302Z,100.00
2023-01-19T01:10:02.197Z,100.00
2023-01-19T01:15:13.265Z,100.00
2023-01-19T01:20:23.421Z,100.00
2023-01-19T01:25:31.124Z,100.00
2023-01-19T01:30:35.556Z,100.00
2023-01-19T01:35:37.484Z,100.00
2023-01-19T01:40:40.481Z,100.00
2023-01-19T01:45:48.056Z,100.00
2023-01-19T01:51:15.399Z,100.00
2023-01-19T01:56:20.626Z,100.00
2023-01-19T02:01:43.573Z,100.00
2023-01-19T02:07:25.198Z,100.00
2023-01-19T02:12:53.790Z,100.00
2023-01-19T02:17:58.468Z,100.00
2023-01-19T02:23:03.893Z,100.00
2023-01-19T02:28:05.704Z,100.00
2023-01-19T02:33:09.599Z,100.00
2023-01-19T02:38:13.788Z,100.00
2023-01-19T02:43:17.415Z,100.00
2023-01-19T02:48:20.598Z,100.00
2023-01-19T02:53:54.799Z,100.00
2023-01-19T02:59:05.319Z,100.00
2023-01-19T03:04:16.868Z,100.00
2023-01-19T03:09:26.669Z,100.00
2023-01-19T03:14:30.105Z,100.00
2023-01-19T03:19:38.104Z,100.00
2023-01-19T03:24:46.461Z,100.00
2023-01-19T03:30:04.763Z,100.00
2023-01-19T03:35:12.885Z,100.00
2023-01-19T03:40:14.744Z,100.00
2023-01-19T03:45:21.667Z,100.00
2023-01-19T03:50:27.222Z,100.00
2023-01-19T03:55:31.346Z,100.00
2023-01-19T04:00:36.480Z,100.00
2023-01-19T04:05:41.578Z,100.00
2023-01-19T04:10:43.231Z,100.00
2023-01-19T04:15:53.930Z,100.00
2023-01-19T04:20:59.458Z,100.00
2023-01-19T04:26:09.028Z,100.00
2023-01-19T04:31:14.520Z,100.00
2023-01-19T04:36:18.517Z,100.00
2023-01-19T04:41:21.314Z,100.00
2023-01-19T04:46:26.604Z,100.00
2023-01-19T04:51:28.825Z,100.00
2023-01-19T04:56:32.969Z,100.00
2023-01-19T05:01:37.066Z,100.00
2023-01-19T05:06:41.945Z,100.00
2023-01-19T05:11:45.159Z,100.00
2023-01-19T05:16:49.226Z,100.00
2023-01-19T05:21:56.275Z,100.00
2023-01-19T05:27:03.871Z,100.00
2023-01-19T05:32:05.946Z,100.00
2023-01-19T05:37:13.243Z,100.00
2023-01-19T05:42:15.028Z,100.00
2023-01-19T05:47:19.271Z,100.00
2023-01-19T05:52:21.864Z,100.00
2023-01-19T05:57:25.599Z,100.00
2023-01-19T06:02:32.257Z,100.00
2023-01-19T06:07:36.224Z,100.00
2023-01-19T06:12:41.792Z,100.00
2023-01-19T06:17:43.596Z,100.00
2023-01-19T06:22:48.085Z,100.00
2023-01-19T06:27:52.409Z,100.00
2023-01-19T06:32:57.943Z,100.00
2023-01-19T06:38:01.985Z,100.00
2023-01-19T06:43:08.700Z,100.00
2023-01-19T06:48:13.706Z,100.00
2023-01-19T06:53:22.225Z,100.00
2023-01-19T06:58:28.476Z,100.00
2023-01-19T07:03:30.764Z,100.00
2023-01-19T07:08:35.372Z,100.00
2023-01-19T07:13:41.130Z,100.00
2023-01-19T07:18:48.449Z,100.00
2023-01-19T07:23:53.636Z,100.00
2023-01-19T07:28:57.702Z,100.00
2023-01-19T07:34:01.762Z,100.00
2023-01-19T07:39:06.938Z,100.00
2023-01-19T07:44:13.451Z,100.00
2023-01-19T07:49:15.196Z,100.00
2023-01-19T07:54:21.819Z,100.00
2023-01-19T07:59:26.282Z,100.00
2023-01-19T08:04:28.404Z,100.00
2023-01-19T08:09:36.105Z,100.00
2023-01-19T08:14:40.063Z,100.00
2023-01-19T08:19:45.084Z,100.00
2023-01-19T08:24:50.422Z,100.00
2023-01-19T08:29:52.330Z,100.00
2023-01-19T08:34:56.587Z,100.00
2023-01-19T08:39:59.086Z,100.00
2023-01-19T08:45:06.826Z,100.00
2023-01-19T08:50:11.940Z,100.00
2023-01-19T08:55:16.710Z,100.00
2023-01-19T09:00:22.278Z,100.00
2023-01-19T09:05:28.823Z,100.00
2023-01-19T09:10:36.073Z,100.00
2023-01-19T09:15:42.456Z,100.00
2023-01-19T09:20:46.397Z,100.00
2023-01-19T09:25:48.735Z,100.00
2023-01-19T09:30:53.109Z,100.00
2023-01-19T09:35:57.712Z,100.00
2023-01-19T09:41:04.351Z,100.00
2023-01-19T09:46:13.067Z,100.00
2023-01-19T09:51:29.811Z,100.00
2023-01-19T09:56:35.605Z,100.00
2023-01-19T10:01:46.743Z,100.00
2023-01-19T10:06:52.106Z,100.00
2023-01-19T10:12:03.531Z,100.00
2023-01-19T10:17:18.187Z,100.00
2023-01-19T10:22:22.268Z,100.00
2023-01-19T10:27:29.651Z,100.00
2023-01-19T10:32:38.671Z,100.00
2023-01-19T10:37:46.132Z,100.00
2023-01-19T10:42:51.282Z,100.00
2023-01-19T10:47:58.178Z,100.00
2023-01-19T10:53:08.006Z,100.00
2023-01-19T10:58:29.188Z,100.00
2023-01-19T11:03:32.264Z,100.00
2023-01-19T11:08:36.446Z,100.00
2023-01-19T11:13:41.993Z,100.00
2023-01-19T11:18:45.707Z,100.00
2023-01-19T11:24:05.776Z,100.00
2023-01-19T11:29:17.118Z,100.00
2023-01-19T11:34:39.296Z,100.00
2023-01-19T11:39:53.796Z,100.00
2023-01-19T11:45:12.582Z,100.00
2023-01-19T11:50:31.384Z,100.00
2023-01-19T11:55:39.219Z,100.00
2023-01-19T12:00:54.896Z,100.00
2023-01-19T12:06:04.226Z,100.00
2023-01-19T12:11:06.789Z,100.00
2023-01-19T12:16:20.910Z,100.00
2023-01-19T12:21:25.977Z,100.00
2023-01-19T12:26:51.507Z,100.00
2023-01-19T12:32:20.218Z,100.00
2023-01-19T12:37:31.670Z,100.00
2023-01-19T12:42:33.747Z,91.37
2023-01-19T12:47:38.943Z,86.26
2023-01-19T12:52:48.050Z,81.96
2023-01-19T12:57:49.694Z,84.25
2023-01-19T13:02:55.898Z,74.45
2023-01-19T13:08:06.904Z,74.52
2023-01-19T13:13:21.235Z,69.96
2023-01-19T13:18:29.987Z,68.41
2023-01-19T13:23:51.801Z,65.88
2023-01-19T13:28:57.996Z,64.61
2023-01-19T13:34:02.814Z,60.94
2023-01-19T13:39:11.904Z,61.39
2023-01-19T13:44:18.824Z,62.01
2023-01-19T13:49:31.544Z,63.74
2023-01-19T13:54:37.267Z,67.03
2023-01-19T13:59:45.159Z,70.48
2023-01-19T14:04:54.332Z,70.75
2023-01-19T14:10:13.188Z,69.10
2023-01-19T14:15:21.097Z,68.38
2023-01-19T14:20:32.831Z,68.05
2023-01-19T14:25:39.629Z,74.50
2023-01-19T14:31:02.483Z,79.52
2023-01-19T14:36:17.992Z,81.63
2023-01-19T14:41:37.094Z,81.84
2023-01-19T14:46:49.260Z,82.33
2023-01-19T14:51:52.041Z,84.88
2023-01-19T14:56:54.174Z,85.07
2023-01-19T15:01:56.151Z,85.50
2023-01-19T15:07:00.185Z,84.76
2023-01-19T15:12:02.325Z,85.48
2023-01-19T15:17:04.924Z,85.38
2023-01-19T15:22:16.078Z,85.86
2023-01-19T15:27:17.902Z,86.21
2023-01-19T15:32:24.386Z,86.27
2023-01-19T15:37:28.454Z,87.03
2023-01-19T15:42:35.290Z,88.14
2023-01-19T15:47:37.165Z,89.07
2023-01-19T15:52:38.998Z,89.38
2023-01-19T15:57:40.732Z,91.79
2023-01-19T16:02:45.848Z,92.43
2023-01-19T16:07:49.879Z,93.64
2023-01-19T16:12:54.193Z,94.77
2023-01-19T16:18:00.807Z,95.65
2023-01-19T16:23:15.151Z,95.95
2023-01-19T16:28:17.152Z,98.00
2023-01-19T16:33:19.321Z,98.46
2023-01-19T16:38:23.228Z,98.79
2023-01-19T16:43:26.343Z,98.48
2023-01-19T16:48:33.883Z,98.60
2023-01-19T16:53:38.450Z,98.74
2023-01-19T16:58:41.155Z,100.00
2023-01-19T17:03:43.413Z,100.00
2023-01-19T17:08:45.233Z,100.00
2023-01-19T17:14:02.386Z,100.00
2023-01-19T17:19:09.835Z,100.00
2023-01-19T17:24:11.649Z,100.00
2023-01-19T17:29:16.238Z,100.00
2023-01-19T17:34:22.730Z,100.00
2023-01-19T17:39:24.420Z,100.00
2023-01-19T17:44:26.215Z,100.00
2023-01-19T17:49:28.000Z,100.00
2023-01-19T17:54:30.743Z,100.00
2023-01-19T17:59:35.575Z,100.00
2023-01-19T18:04:42.135Z,100.00
2023-01-19T18:09:45.758Z,100.00
2023-01-19T18:14:50.935Z,100.00
2023-01-19T18:19:54.978Z,100.00
2023-01-19T18:24:56.753Z,100.00
2023-01-19T18:29:58.546Z,100.00
2023-01-19T18:35:00.925Z,100.00
2023-01-19T18:40:07.993Z,100.00
2023-01-19T18:45:12.520Z,100.00
2023-01-19T18:50:18.941Z,100.00
2023-01-19T18:55:24.052Z,100.00
2023-01-19T19:00:25.982Z,100.00
2023-01-19T19:05:30.031Z,100.00
2023-01-19T19:10:36.337Z,100.00
2023-01-19T19:15:39.277Z,100.00
2023-01-19T19:20:44.142Z,100.00
2023-01-19T19:25:48.517Z,100.00
2023-01-19T19:30:52.599Z,100.00
2023-01-19T19:35:59.885Z,100.00
2023-01-19T19:41:10.607Z,100.00
2023-01-19T19:46:16.411Z,100.00
2023-01-19T19:51:25.721Z,100.00
2023-01-19T19:56:29.407Z,100.00
2023-01-19T20:01:33.380Z,100.00
2023-01-19T20:06:39.918Z,100.00
2023-01-19T20:11:43.340Z,100.00
2023-01-19T20:16:50.991Z,100.00
2023-01-19T20:21:57.981Z,100.00
2023-01-19T20:27:04.464Z,100.00
2023-01-19T20:32:10.858Z,100.00
2023-01-19T20:37:13.532Z,100.00
2023-01-19T20:42:16.533Z,100.00
2023-01-19T20:47:18.514Z,100.00
2023-01-19T20:52:21.579Z,100.00
2023-01-19T20:57:23.371Z,100.00
2023-01-19T21:02:33.779Z,100.00
2023-01-19T21:07:37.803Z,100.00
2023-01-19T21:12:42.409Z,100.00
2023-01-19T21:17:46.860Z,100.00
2023-01-19T21:22:51.352Z,100.00
2023-01-19T21:27:53.170Z,100.00
2023-01-19T21:33:02.214Z,100.00
2023-01-19T21:38:06.737Z,100.00
2023-01-19T21:43:08.708Z,100.00
2023-01-19T21:48:15.407Z,100.00
2023-01-19T21:53:17.078Z,100.00
2023-01-19T21:58:21.777Z,100.00
2023-01-19T22:03:28.722Z,100.00
2023-01-19T22:08:33.764Z,100.00
2023-01-19T22:13:38.477Z,100.00
2023-01-19T22:18:49.203Z,100.00
2023-01-19T22:23:56.249Z,100.00
2023-01-19T22:29:02.728Z,100.00
2023-01-19T22:34:10.813Z,100.00
2023-01-19T22:39:15.080Z,100.00
2023-01-19T22:44:23.866Z,100.00
2023-01-19T22:49:25.616Z,100.00
2023-01-19T22:54:30.211Z,100.00
2023-01-19T22:59:32.188Z,100.00
2023-01-19T23:04:34.010Z,100.00
2023-01-19T23:09:42.718Z,100.00
2023-01-19T23:14:44.399Z,100.00
2023-01-19T23:19:48.416Z,100.00
2023-01-19T23:24:50.148Z,100.00
2023-01-19T23:30:10.161Z,100.00
2023-01-19T23:35:14.447Z,100.00
2023-01-19T23:40:21.865Z,100.00
2023-01-19T23:45:25.900Z,100.00
2023-01-19T23:50:29.756Z,100.00
2023-01-19T23:55:34.042Z,100.00
